| time (UTC) | temp C | wind direction | speed KPH | gust KPH | rain 1hr cm | rain 24hr cm | rain mn cm | humidity % | barometer mb |
| 20260903073510 | 16 | 17 | 1.6 | 4.8 | 0.00 | 0.00 | 0.00 | 73 | |
| 20260903072510 | 16 | 115 | 1.6 | 4.8 | 0.00 | 0.00 | 0.00 | 79 | |
| 20260903071124 | 16 | 135 | 1.6 | 4.8 | 0.00 | 0.00 | 0.00 | 78 | |
| 20260903070511 | 15 | 87 | 1.6 | 3.2 | 0.00 | 0.00 | 0.00 | 79 | |
| 20260903065511 | 15 | 14 | 3.2 | 4.8 | 0.00 | 0.00 | 0.00 | 80 | |
| 20260903064123 | 15 | 341 | 1.6 | 4.8 | 0.00 | 0.00 | 0.00 | 81 | |
| 20260903063510 | 14 | 198 | 1.6 | 3.2 | 0.00 | 0.00 | 0.00 | 82 | |
| 20260903062511 | 13 | 152 | 3.2 | 4.8 | 0.00 | 0.00 | 0.00 | 89 | |
| 20260903061124 | 13 | 177 | 1.6 | 3.2 | 0.00 | 0.00 | 0.00 | 89 | |
| 20260903060511 | 12 | 199 | 3.2 | 3.2 | 0.00 | 0.00 | 0.00 | 90 | |
| 20260903055510 | 12 | 141 | 1.6 | 3.2 | 0.00 | 0.00 | 0.00 | 90 | |
| 20260903054123 | 12 | 258 | 1.6 | 4.8 | 0.00 | 0.00 | 0.00 | 89 | |
| 20260903053511 | 12 | 283 | 4.8 | 8.0 | 0.00 | 0.00 | 0.00 | 89 | |
| 20260903052511 | 12 | 272 | 3.2 | 6.4 | 0.00 | 0.00 | 0.00 | 89 | |
| 20260903051124 | 12 | 292 | 4.8 | 8.0 | 0.00 | 0.00 | 0.00 | 91 | |
| 20260903050510 | 12 | 263 | 3.2 | 6.4 | 0.00 | 0.00 | 0.00 | 91 | |
| 20260903045511 | 12 | 242 | 1.6 | 4.8 | 0.00 | 0.00 | 0.00 | 90 | |
| 20260903044123 | 12 | 298 | 1.6 | 3.2 | 0.00 | 0.00 | 0.00 | 91 | |
| 20260903043510 | 12 | 63 | 0.0 | 3.2 | 0.00 | 0.00 | 0.00 | 90 | |
| 20260903042511 | 12 | 122 | 1.6 | 3.2 | 0.00 | 0.00 | 0.00 | 90 | |
| 20260903041123 | 12 | 171 | 1.6 | 4.8 | 0.00 | 0.00 | 0.00 | 90 | |
| 20260903040511 | 12 | 173 | 1.6 | 4.8 | 0.00 | 0.00 | 0.00 | 90 | |
| 20260903035511 | 13 | 279 | 3.2 | 6.4 | 0.00 | 0.00 | 0.00 | 84 | |
| 20260903034510 | 13 | 297 | 6.4 | 11.3 | 0.00 | 0.00 | 0.00 | 84 | |
| 20260903033511 | 13 | 270 | 6.4 | 11.3 | 0.00 | 0.00 | 0.00 | 84 | |
| 20260903032511 | 13 | 269 | 4.8 | 9.7 | 0.00 | 0.00 | 0.00 | 85 | |
| 20260903031124 | 13 | 297 | 6.4 | 9.7 | 0.00 | 0.00 | 0.00 | 87 | |
| 20260903030511 | 13 | 273 | 3.2 | 8.0 | 0.00 | 0.00 | 0.00 | 84 | |
| 20260903025511 | 13 | 269 | 3.2 | 9.7 | 0.00 | 0.00 | 0.00 | 84 | |
| 20260903024511 | 13 | 265 | 3.2 | 8.0 | 0.00 | 0.00 | 0.00 | 85 | |
| 20260903023511 | 13 | 288 | 4.8 | 8.0 | 0.00 | 0.00 | 0.00 | 86 | |
| 20260903022511 | 13 | 298 | 4.8 | 8.0 | 0.00 | 0.00 | 0.00 | 88 | |
| 20260903021123 | 13 | 250 | 4.8 | 8.0 | 0.00 | 0.00 | 0.00 | 85 | |
| 20260903020511 | 13 | 246 | 4.8 | 8.0 | 0.00 | 0.00 | 0.00 | 87 | |
| 20260903015511 | 13 | 287 | 1.6 | 4.8 | 0.00 | 0.00 | 0.00 | 89 | |
| 20260903014123 | 14 | 257 | 3.2 | 3.2 | 0.00 | 0.00 | 0.00 | 85 | |
| 20260903013510 | 13 | 222 | 3.2 | 4.8 | 0.00 | 0.00 | 0.00 | 88 | |
| 20260903012510 | 14 | 270 | 0.0 | 3.2 | 0.00 | 0.00 | 0.00 | 88 | |
| 20260903011124 | 14 | 103 | 0.0 | 1.6 | 0.00 | 0.00 | 0.00 | 87 | |
| 20260903010511 | 14 | 259 | 0.0 | 4.8 | 0.00 | 0.00 | 0.00 | 87 | |
| 20260903005511 | 15 | 360 | 0.0 | 3.2 | 0.00 | 0.00 | 0.00 | 82 | |
| 20260903004124 | 14 | 225 | 1.6 | 6.4 | 0.00 | 0.00 | 0.00 | 86 | |
| 20260903003511 | 15 | 229 | 3.2 | 6.4 | 0.00 | 0.00 | 0.00 | 81 | |
| 20260903002511 | 15 | 284 | 1.6 | 4.8 | 0.00 | 0.00 | 0.00 | 82 | |
| 20260903001523 | 15 | 290 | 3.2 | 9.7 | 0.00 | 0.00 | 0.00 | 82 | |
| 20260903000510 | 15 | 237 | 3.2 | 6.4 | 0.00 | 0.00 | 0.00 | 81 | |
| 20260902235510 | 15 | 55 | 0.0 | 4.8 | 0.00 | 0.00 | 0.00 | 81 | |
| 20260902234123 | 15 | 223 | 4.8 | 8.0 | 0.00 | 0.00 | 0.00 | 81 | |
| 20260902233510 | 15 | 312 | 1.6 | 4.8 | 0.00 | 0.00 | 0.00 | 79 | |
| 20260902232510 | 15 | 186 | 0.0 | 6.4 | 0.00 | 0.00 | 0.00 | 82 | |
| 20260902231511 | 15 | 286 | 4.8 | 11.3 | 0.00 | 0.00 | 0.00 | 80 | |
| 20260902230510 | 16 | 261 | 8.0 | 12.9 | 0.00 | 0.00 | 0.00 | 76 | |
| 20260902225511 | 16 | 257 | 9.7 | 11.3 | 0.00 | 0.00 | 0.00 | 75 | |
| 20260902223511 | 16 | 277 | 3.2 | 11.3 | 0.00 | 0.00 | 0.00 | 76 | |
| 20260902222511 | 16 | 269 | 6.4 | 12.9 | 0.00 | 0.00 | 0.00 | 74 | |
| 20260902221124 | 17 | 278 | 4.8 | 12.9 | 0.00 | 0.00 | 0.00 | 72 | |
| 20260902220510 | 17 | 266 | 8.0 | 14.5 | 0.00 | 0.00 | 0.00 | 72 | |
| 20260902215510 | 17 | 272 | 6.4 | 17.7 | 0.00 | 0.00 | 0.00 | 71 | |
| 20260902214124 | 17 | 272 | 6.4 | 17.7 | 0.00 | 0.00 | 0.00 | 69 | |
| 20260902213510 | 17 | 254 | 8.0 | 19.3 | 0.00 | 0.00 | 0.00 | 69 | |
| 20260902211124 | 18 | 265 | 11.3 | 20.9 | 0.00 | 0.00 | 0.00 | 68 | |
| 20260902210511 | 17 | 244 | 6.4 | 16.1 | 0.00 | 0.00 | 0.00 | 71 | |
| 20260902205511 | 16 | 210 | 3.2 | 14.5 | 0.00 | 0.00 | 0.00 | 80 | |
| 20260902204125 | 16 | 230 | 0.0 | 4.8 | 0.00 | 0.00 | 0.00 | 76 | |
| 20260902203510 | 16 | 202 | 4.8 | 14.5 | 0.00 | 0.00 | 0.00 | 79 | |
| 20260902202511 | 16 | 221 | 3.2 | 6.4 | 0.00 | 0.00 | 0.00 | 79 | |
| 20260902201124 | 17 | 208 | 1.6 | 3.2 | 0.00 | 0.00 | 0.00 | 73 | |
| 20260902200511 | 17 | 79 | 3.2 | 4.8 | 0.00 | 0.00 | 0.00 | 76 | |
| 20260902195511 | 17 | 188 | 3.2 | 8.0 | 0.00 | 0.00 | 0.00 | 73 | |
| 20260902194124 | 17 | 190 | 3.2 | 6.4 | 0.00 | 0.00 | 0.00 | 71 | |
| 20260902193511 | 17 | 267 | 6.4 | 16.1 | 0.00 | 0.00 | 0.00 | 71 | |
| 20260902192510 | 18 | 290 | 6.4 | 14.5 | 0.00 | 0.00 | 0.00 | 68 | |
| 20260902191124 | 19 | 262 | 8.0 | 14.5 | 0.00 | 0.00 | 0.00 | 60 | |
| 20260902190510 | 19 | 255 | 8.0 | 14.5 | 0.00 | 0.00 | 0.00 | 62 | |
| 20260902185511 | 19 | 241 | 9.7 | 17.7 | 0.00 | 0.00 | 0.00 | 61 | |
| 20260902184124 | 20 | 228 | 12.9 | 17.7 | 0.00 | 0.00 | 0.00 | 59 | |
| 20260902183511 | 20 | 229 | 12.9 | 17.7 | 0.00 | 0.00 | 0.00 | 55 | |
| 20260902182511 | 21 | 231 | 14.5 | 20.9 | 0.00 | 0.00 | 0.00 | 54 | |
| 20260902181124 | 20 | 238 | 12.9 | 20.9 | 0.00 | 0.00 | 0.00 | 58 | |
| 20260902180511 | 20 | 237 | 12.9 | 19.3 | 0.00 | 0.00 | 0.00 | 60 | |
| 20260902175511 | 20 | 242 | 12.9 | 22.5 | 0.00 | 0.00 | 0.00 | 61 | |
| 20260902174124 | 20 | 257 | 9.7 | 17.7 | 0.00 | 0.00 | 0.00 | 65 | |
| 20260902173510 | 21 | 230 | 14.5 | 20.9 | 0.00 | 0.00 | 0.00 | 55 | |
| 20260902172511 | 21 | 231 | 14.5 | 20.9 | 0.00 | 0.00 | 0.00 | 56 | |
| 20260902171124 | 21 | 237 | 12.9 | 19.3 | 0.00 | 0.00 | 0.00 | 55 | |
| 20260902170511 | 22 | 224 | 14.5 | 19.3 | 0.00 | 0.00 | 0.00 | 53 | |
| 20260902165511 | 21 | 230 | 14.5 | 20.9 | 0.00 | 0.00 | 0.00 | 58 | |
| 20260902164124 | 22 | 231 | 16.1 | 24.1 | 0.00 | 0.00 | 0.00 | 53 | |
| 20260902163511 | 22 | 229 | 12.9 | 20.9 | 0.00 | 0.00 | 0.00 | 56 | |
| 20260902162511 | 22 | 237 | 12.9 | 19.3 | 0.00 | 0.00 | 0.00 | 56 | |
| 20260902161124 | 23 | 232 | 11.3 | 20.9 | 0.00 | 0.00 | 0.00 | 45 | |
| 20260902160510 | 23 | 224 | 14.5 | 22.5 | 0.00 | 0.00 | 0.00 | 47 | |
| 20260902155511 | 23 | 216 | 16.1 | 22.5 | 0.00 | 0.00 | 0.00 | 45 | |
| 20260902154124 | 24 | 237 | 11.3 | 20.9 | 0.00 | 0.00 | 0.00 | 46 | |
| 20260902153511 | 24 | 236 | 11.3 | 17.7 | 0.00 | 0.00 | 0.00 | 44 | |
| 20260902152510 | 25 | 234 | 9.7 | 17.7 | 0.00 | 0.00 | 0.00 | 43 | |
| 20260902151124 | 25 | 299 | 4.8 | 19.3 | 0.00 | 0.00 | 0.00 | 42 | |
| 20260902150511 | 25 | 288 | 11.3 | 25.7 | 0.00 | 0.00 | 0.00 | 39 | |
| 20260902145511 | 25 | 293 | 9.7 | 25.7 | 0.00 | 0.00 | 0.00 | 39 | |
| 20260902144124 | 25 | 280 | 9.7 | 25.7 | 0.00 | 0.00 | 0.00 | 42 | |
| 20260902143510 | 25 | 259 | 14.5 | 27.4 | 0.00 | 0.00 | 0.00 | 39 | |
| 20260902142511 | 25 | 126 | 4.8 | 17.7 | 0.00 | 0.00 | 0.00 | 44 | |
| 20260902141124 | 24 | 102 | 4.8 | 8.0 | 0.00 | 0.00 | 0.00 | 44 | |
| 20260902140511 | 24 | 115 | 4.8 | 9.7 | 0.00 | 0.00 | 0.00 | 51 | |
| 20260902135511 | 24 | 97 | 6.4 | 11.3 | 0.00 | 0.00 | 0.00 | 51 | |
| 20260902134123 | 23 | 100 | 6.4 | 9.7 | 0.00 | 0.00 | 0.00 | 49 | |
| 20260902133511 | 23 | 100 | 4.8 | 9.7 | 0.00 | 0.00 | 0.00 | 46 | |
| 20260902132511 | 24 | 97 | 4.8 | 9.7 | 0.00 | 0.00 | 0.00 | 49 | |
| 20260902131124 | 23 | 107 | 9.7 | 12.9 | 0.00 | 0.00 | 0.00 | 48 | |
| 20260902130511 | 23 | 101 | 8.0 | 12.9 | 0.00 | 0.00 | 0.00 | 47 | |
| 20260902125511 | 23 | 104 | 6.4 | 12.9 | 0.00 | 0.00 | 0.00 | 44 | |
| 20260902124123 | 23 | 110 | 9.7 | 14.5 | 0.00 | 0.00 | 0.00 | 50 | |
| 20260902123511 | 23 | 102 | 6.4 | 11.3 | 0.00 | 0.00 | 0.00 | 50 | |
| 20260902122511 | 22 | 79 | 4.8 | 9.7 | 0.00 | 0.00 | 0.00 | 50 | |
| 20260902121124 | 22 | 113 | 8.0 | 12.9 | 0.00 | 0.00 | 0.00 | 50 | |
| 20260902120510 | 23 | 99 | 6.4 | 9.7 | 0.00 | 0.00 | 0.00 | 48 | |
| 20260902115510 | 22 | 97 | 6.4 | 11.3 | 0.00 | 0.00 | 0.00 | 49 | |
| 20260902114124 | 22 | 110 | 8.0 | 14.5 | 0.00 | 0.00 | 0.00 | 50 | |
| 20260902113511 | 22 | 91 | 9.7 | 14.5 | 0.00 | 0.00 | 0.00 | 50 | |
| 20260902112511 | 22 | 80 | 8.0 | 16.1 | 0.00 | 0.00 | 0.00 | 50 | |
| 20260902111124 | 22 | 108 | 9.7 | 14.5 | 0.00 | 0.00 | 0.00 | 52 | |
| 20260902110511 | 22 | 113 | 9.7 | 14.5 | 0.00 | 0.00 | 0.00 | 57 | |
| 20260902105510 | 21 | 91 | 8.0 | 14.5 | 0.00 | 0.00 | 0.00 | 53 | |
| 20260902104124 | 21 | 81 | 8.0 | 14.5 | 0.00 | 0.00 | 0.00 | 56 | |
| 20260902103511 | 21 | 74 | 8.0 | 14.5 | 0.00 | 0.00 | 0.00 | 58 | |
| 20260902102510 | 21 | 87 | 8.0 | 14.5 | 0.00 | 0.00 | 0.00 | 62 | |
| 20260902101124 | 20 | 91 | 9.7 | 14.5 | 0.00 | 0.00 | 0.00 | 60 | |
| 20260902100511 | 20 | 81 | 6.4 | 11.3 | 0.00 | 0.00 | 0.00 | 60 | |
| 20260902095511 | 20 | 86 | 3.2 | 9.7 | 0.00 | 0.00 | 0.00 | 59 | |
| 20260902094124 | 20 | 92 | 1.6 | 6.4 | 0.00 | 0.00 | 0.00 | 61 | |
| 20260902093511 | 19 | 97 | 4.8 | 9.7 | 0.00 | 0.00 | 0.00 | 64 | |
| 20260902092510 | 18 | 108 | 4.8 | 8.0 | 0.00 | 0.00 | 0.00 | 64 | |
| 20260902091123 | 18 | 119 | 4.8 | 8.0 | 0.00 | 0.00 | 0.00 | 63 | |
| 20260902090511 | 18 | 137 | 4.8 | 9.7 | 0.00 | 0.00 | 0.00 | 69 | |
| 20260902084123 | 18 | 131 | 1.6 | 6.4 | 0.00 | 0.00 | 0.00 | 68 | |
| 20260902083511 | 17 | 149 | 4.8 | 8.0 | 0.00 | 0.00 | 0.00 | 68 | |
| 20260902082511 | 17 | 134 | 4.8 | 8.0 | 0.00 | 0.00 | 0.00 | 71 | |
| 20260902081123 | 17 | 133 | 1.6 | 4.8 | 0.00 | 0.00 | 0.00 | 70 | |
| 20260902080511 | 17 | 145 | 3.2 | 6.4 | 0.00 | 0.00 | 0.00 | 72 | |
| 20260902075511 | 16 | 189 | 3.2 | 6.4 | 0.00 | 0.00 | 0.00 | 75 | |
| 20260902074124 | 16 | 195 | 4.8 | 8.0 | 0.00 | 0.00 | 0.00 | 73 |